Time;durP1;ratioP1;P1;durP2;ratioP2;P2;SDS_P1;SDS_P2;PMS_P1;PMS_P2;Temp;Humidity;BMP_temperature;BMP_pressure;BME280_temperature;BME280_humidity;BME280_pressure;Samples;Min_cycle;Max_cycle;Signal;HPM_P1;HPM_P2
2022/08/07 00:01:09;;;;;;;8.43;4.25;;;;;;;19.48;53.09;99749.22;4976330;28;20042;-74
2022/08/07 00:03:35;;;;;;;16.08;5.07;;;;;;;19.38;53.35;99752.09;4960274;28;20057;-75
2022/08/07 00:06:01;;;;;;;9.57;4.72;;;;;;;19.28;54.25;99750.56;4976163;28;20035;-75
2022/08/07 00:08:28;;;;;;;10.68;4.80;;;;;;;19.19;54.64;99759.72;4992103;28;20073;-75
2022/08/07 00:10:54;;;;;;;8.68;4.43;;;;;;;19.15;54.86;99764.63;4976280;28;20406;-75
2022/08/07 00:13:21;;;;;;;5.55;4.30;;;;;;;19.06;55.14;99755.63;4992258;28;20058;-75
2022/08/07 00:15:47;;;;;;;8.95;4.68;;;;;;;19.09;55.68;99759.88;4976161;28;20039;-75
2022/08/07 00:18:20;;;;;;;8.60;4.75;;;;;;;19.01;55.45;99744.47;4975968;28;20379;-75
2022/08/07 00:20:48;;;;;;;9.95;5.00;;;;;;;19.02;56.26;99761.56;4976096;28;20055;-74
2022/08/07 00:23:14;;;;;;;11.00;4.13;;;;;;;18.95;56.73;99755.09;4977046;28;20050;-75
2022/08/07 00:25:40;;;;;;;9.27;4.30;;;;;;;19.02;56.76;99756.97;4992285;28;20166;-74
2022/08/07 00:28:06;;;;;;;7.75;4.93;;;;;;;18.98;56.32;99755.63;4975856;28;20125;-74
2022/08/07 00:30:31;;;;;;;6.20;5.18;;;;;;;19.00;56.41;99753.59;4977058;28;20406;-75
2022/08/07 00:32:59;;;;;;;8.60;4.90;;;;;;;19.04;56.42;99756.84;4975744;28;20053;-74
2022/08/07 00:35:26;;;;;;;7.78;4.68;;;;;;;19.07;56.04;99759.19;4976068;28;20055;-74
2022/08/07 00:37:52;;;;;;;10.65;4.35;;;;;;;19.05;56.52;99762.06;4991900;28;20051;-75
2022/08/07 00:40:18;;;;;;;6.60;4.28;;;;;;;19.04;56.72;99754.97;4959500;28;20522;-74
2022/08/07 00:42:44;;;;;;;7.90;4.80;;;;;;;19.06;56.46;99755.63;4975516;28;20085;-76
2022/08/07 00:45:10;;;;;;;14.40;4.85;;;;;;;19.04;56.65;99746.84;4992003;28;20540;-74
2022/08/07 00:47:36;;;;;;;9.25;4.93;;;;;;;19.08;56.47;99759.03;4975002;28;20510;-75
2022/08/07 00:50:03;;;;;;;13.48;4.88;;;;;;;19.09;56.70;99752.59;4977137;28;20085;-74
2022/08/07 00:52:29;;;;;;;12.95;5.22;;;;;;;19.08;56.65;99758.19;4984175;28;20039;-76
2022/08/07 00:54:55;;;;;;;14.20;5.35;;;;;;;19.01;56.81;99758.00;4965015;28;20053;-74
2022/08/07 00:57:22;;;;;;;14.45;5.97;;;;;;;19.02;57.15;99751.56;4977918;28;20046;-74
2022/08/07 00:59:48;;;;;;;13.25;5.38;;;;;;;18.98;57.33;99750.22;4976925;28;20517;-74
2022/08/07 01:02:14;;;;;;;15.13;5.70;;;;;;;18.96;57.14;99757.66;4991673;28;20129;-74
2022/08/07 01:04:40;;;;;;;10.90;5.18;;;;;;;18.99;57.27;99757.31;4959134;28;20130;-74
2022/08/07 01:07:06;;;;;;;13.23;5.72;;;;;;;19.09;57.12;99755.31;4975372;28;20054;-75
2022/08/07 01:09:32;;;;;;;7.72;5.63;;;;;;;19.10;57.17;99748.88;4975067;28;20544;-74
2022/08/07 01:11:59;;;;;;;13.02;5.82;;;;;;;19.14;56.81;99749.38;4958983;28;20157;-74
2022/08/07 01:14:26;;;;;;;11.90;6.13;;;;;;;19.09;57.39;99746.34;4991555;28;20457;-74
2022/08/07 01:16:53;;;;;;;20.23;7.38;;;;;;;19.10;57.31;99743.44;4975022;28;20074;-74
2022/08/07 01:19:22;;;;;;;10.65;6.70;;;;;;;19.08;57.34;99734.66;4974977;28;20533;-75
2022/08/07 01:21:52;;;;;;;9.63;7.25;;;;;;;18.96;57.98;99730.59;4974941;28;20516;-75
2022/08/07 01:24:19;;;;;;;11.70;6.70;;;;;;;18.84;58.60;99737.31;4991223;28;20129;-74
2022/08/07 01:26:45;;;;;;;13.27;8.00;;;;;;;18.75;59.15;99755.41;4958837;28;20133;-75
2022/08/07 01:29:13;;;;;;;12.18;8.82;;;;;;;18.61;59.13;99750.59;4974615;28;20355;-74
2022/08/07 01:31:39;;;;;;;12.75;9.73;;;;;;;18.58;59.78;99751.78;4974433;28;20039;-74
2022/08/07 01:34:05;;;;;;;18.55;9.30;;;;;;;18.49;60.10;99760.88;4990950;28;20105;-75
2022/08/07 01:36:35;;;;;;;17.88;10.38;;;;;;;18.48;60.20;99761.91;4974278;28;20506;-74
2022/08/07 01:39:06;;;;;;;19.60;9.00;;;;;;;18.36;60.54;99742.41;4990983;28;20074;-75
2022/08/07 01:41:32;;;;;;;15.27;8.27;;;;;;;18.45;60.71;99764.91;4974559;28;20051;-74
2022/08/07 01:44:02;;;;;;;14.98;8.73;;;;;;;18.40;60.73;99749.19;4991011;28;20047;-74
2022/08/07 01:46:30;;;;;;;15.20;8.48;;;;;;;18.41;60.87;99761.69;4974710;28;20038;-74
2022/08/07 01:48:57;;;;;;;16.13;9.32;;;;;;;18.42;60.73;99773.38;4975684;28;20081;-77
2022/08/07 01:51:25;;;;;;;17.58;11.40;;;;;;;18.45;60.53;99767.63;4974310;28;20073;-76
2022/08/07 01:53:56;;;;;;;16.40;11.85;;;;;;;18.42;60.70;99754.41;4990924;28;20499;-76
2022/08/07 01:56:42;;;;;;;12.00;10.80;;;;;;;18.56;60.17;99764.63;4974241;28;20449;-76
2022/08/07 01:59:13;;;;;;;11.85;10.00;;;;;;;18.57;60.27;99758.19;4974028;28;20422;-76
2022/08/07 02:01:53;;;;;;;15.45;9.82;;;;;;;18.67;60.08;99771.59;4974317;28;20418;-76
2022/08/07 02:04:40;;;;;;;13.15;9.57;;;;;;;18.68;59.95;99759.75;4957929;28;20053;-76
2022/08/07 02:07:12;;;;;;;13.43;10.18;;;;;;;18.74;59.81;99774.53;4974153;28;20088;-77
2022/08/07 02:09:41;;;;;;;19.25;11.55;;;;;;;18.67;60.25;99775.16;4990359;28;20073;-75
2022/08/07 02:12:18;;;;;;;12.15;10.32;;;;;;;18.61;60.46;99775.81;4974047;28;20038;-75
2022/08/07 02:14:56;;;;;;;13.50;10.43;;;;;;;18.65;60.51;99771.78;4973825;28;20052;-75
2022/08/07 02:17:36;;;;;;;12.27;10.27;;;;;;;18.68;60.65;99779.56;4973958;28;20049;-76
2022/08/07 02:20:06;;;;;;;15.52;11.23;;;;;;;18.54;60.69;99763.97;4957603;28;20058;-75
2022/08/07 02:22:37;;;;;;;21.17;11.90;;;;;;;18.63;61.33;99787.34;4973785;28;20054;-77
2022/08/07 02:25:06;;;;;;;16.55;11.45;;;;;;;18.64;61.57;99778.19;4974914;28;20130;-76
2022/08/07 02:27:34;;;;;;;14.93;11.43;;;;;;;18.63;61.80;99784.63;4989798;28;20161;-76
2022/08/07 02:30:02;;;;;;;19.33;12.10;;;;;;;18.66;61.79;99778.88;4989732;28;20109;-76
2022/08/07 02:32:35;;;;;;;19.17;12.38;;;;;;;18.77;61.68;99785.91;4973622;28;20517;-76
2022/08/07 02:35:03;;;;;;;15.52;12.48;;;;;;;18.90;61.47;99788.13;4973421;28;20063;-75
2022/08/07 02:37:33;;;;;;;16.90;12.30;;;;;;;18.85;61.64;99771.53;4973433;28;20181;-75
2022/08/07 02:40:02;;;;;;;16.65;12.38;;;;;;;18.88;61.74;99773.88;4973414;28;20513;-76
2022/08/07 02:42:31;;;;;;;22.88;14.20;;;;;;;18.97;61.66;99794.56;4989685;28;20403;-76
2022/08/07 02:45:03;;;;;;;18.48;13.00;;;;;;;19.05;61.30;99800.00;4973100;28;20190;-76
2022/08/07 02:47:30;;;;;;;20.23;11.85;;;;;;;19.16;60.73;99785.31;4974198;28;20046;-76
2022/08/07 02:50:06;;;;;;;17.55;10.35;;;;;;;19.29;60.81;99795.63;4973094;28;20482;-75
2022/08/07 02:52:46;;;;;;;16.03;10.00;;;;;;;19.36;60.19;99785.81;4989419;28;20182;-76
2022/08/07 02:55:21;;;;;;;20.02;9.73;;;;;;;19.49;59.89;99794.31;4974467;28;20746;-77
2022/08/07 02:57:48;;;;;;;13.98;9.35;;;;;;;19.57;59.89;99794.31;4973089;28;20510;-78
2022/08/07 03:00:16;;;;;;;12.90;9.23;;;;;;;19.59;59.62;99794.97;4973351;28;20185;-77
2022/08/07 03:02:46;;;;;;;12.55;9.23;;;;;;;19.59;59.92;99786.00;4974375;28;20047;-77
2022/08/07 03:05:15;;;;;;;19.25;10.48;;;;;;;19.54;59.57;99785.66;4989514;28;20146;-77
2022/08/07 03:07:43;;;;;;;15.63;8.67;;;;;;;19.66;59.35;99797.88;4989346;28;20097;-77
2022/08/07 03:10:10;;;;;;;11.43;8.65;;;;;;;19.86;59.29;99806.53;4989345;28;20055;-77
2022/08/07 03:12:37;;;;;;;16.13;8.38;;;;;;;19.95;58.95;99810.91;4989307;28;20049;-78
2022/08/07 03:15:09;;;;;;;19.88;8.23;;;;;;;20.06;58.93;99802.44;4973108;28;20050;-76
2022/08/07 03:17:36;;;;;;;16.17;8.82;;;;;;;20.07;58.17;99801.41;4989057;28;20079;-77
2022/08/07 03:20:06;;;;;;;21.02;10.52;;;;;;;20.25;57.89;99811.22;4973706;28;20070;-78
2022/08/07 03:22:33;;;;;;;11.73;8.18;;;;;;;20.32;58.38;99812.22;4989027;28;20050;-76
2022/08/07 03:25:00;;;;;;;15.30;7.95;;;;;;;20.41;57.93;99797.56;4974023;28;20050;-76
2022/08/07 03:27:29;;;;;;;13.57;8.68;;;;;;;20.57;57.60;99812.97;4973228;28;20039;-75
2022/08/07 03:29:56;;;;;;;20.42;9.35;;;;;;;20.55;57.59;99798.75;4972644;28;20106;-78
2022/08/07 03:32:35;;;;;;;15.70;9.65;;;;;;;20.72;57.16;99815.81;4972631;28;20422;-76
2022/08/07 03:35:07;;;;;;;14.60;10.73;;;;;;;20.80;57.34;99821.22;4972772;28;20062;-76
2022/08/07 03:37:35;;;;;;;17.10;10.90;;;;;;;20.75;57.03;99810.88;4972775;28;20137;-75
2022/08/07 03:40:04;;;;;;;15.23;10.68;;;;;;;20.69;57.52;99822.47;4956709;28;20514;-76
2022/08/07 03:42:33;;;;;;;14.60;10.90;;;;;;;20.76;57.57;99817.16;4972805;28;20458;-80
2022/08/07 03:45:02;;;;;;;19.45;10.43;;;;;;;20.92;57.38;99819.81;4988750;28;20470;-77
2022/08/07 03:47:29;;;;;;;14.10;8.63;;;;;;;21.10;56.78;99820.38;4972181;28;20039;-76
2022/08/07 03:49:58;;;;;;;15.05;8.48;;;;;;;21.30;56.56;99819.91;4972586;28;20045;-77
2022/08/07 03:52:31;;;;;;;15.25;8.77;;;;;;;21.45;56.28;99826.28;4956550;28;20047;-76
2022/08/07 03:55:01;;;;;;;12.48;8.02;;;;;;;21.60;55.84;99826.34;4956529;28;20046;-76
2022/08/07 03:57:30;;;;;;;10.77;8.43;;;;;;;21.77;55.61;99827.88;4956707;28;20089;-82
2022/08/07 03:59:57;;;;;;;14.63;8.77;;;;;;;21.87;55.00;99824.94;4956303;28;20097;-77
2022/08/07 04:02:24;;;;;;;13.75;7.88;;;;;;;21.91;54.76;99826.25;4990419;28;20046;-76
2022/08/07 04:04:50;;;;;;;11.90;8.05;;;;;;;22.02;54.28;99828.53;4956778;28;20046;-77
2022/08/07 04:07:18;;;;;;;13.73;8.70;;;;;;;22.04;54.26;99829.19;4956328;28;20047;-76
2022/08/07 04:09:48;;;;;;;14.65;8.30;;;;;;;22.19;54.12;99825.66;4972094;28;20823;-77
2022/08/07 04:12:14;;;;;;;20.52;8.48;;;;;;;22.37;53.33;99828.88;4988609;28;20051;-77
2022/08/07 04:14:42;;;;;;;19.02;9.18;;;;;;;22.31;53.41;99818.75;4988712;28;20094;-77
2022/08/07 04:17:09;;;;;;;13.85;8.90;;;;;;;22.35;53.49;99824.66;4972336;28;20049;-75
2022/08/07 04:19:39;;;;;;;15.32;8.88;;;;;;;22.51;52.84;99819.88;4935726;29;20144;-75
2022/08/07 04:22:06;;;;;;;19.27;8.35;;;;;;;22.54;52.81;99819.50;4936868;29;20073;-74
2022/08/07 04:24:37;;;;;;;16.40;8.98;;;;;;;22.73;52.53;99817.22;4938926;29;20066;-75
2022/08/07 04:27:05;;;;;;;22.50;8.18;;;;;;;22.88;52.22;99814.47;4938488;29;20041;-76
2022/08/07 04:29:33;;;;;;;14.68;7.50;;;;;;;23.11;52.00;99817.09;4954248;29;20063;-83
2022/08/07 04:32:00;;;;;;;15.02;8.50;;;;;;;23.18;51.17;99801.66;4924354;29;20047;-76
2022/08/07 04:34:27;;;;;;;22.08;8.70;;;;;;;23.30;50.65;99829.25;4926989;29;20070;-74
2022/08/07 04:36:53;;;;;;;16.67;8.35;;;;;;;23.25;50.64;99816.19;4935754;29;20068;-76
2022/08/07 04:39:19;;;;;;;17.55;8.57;;;;;;;23.39;50.52;99823.47;4935947;29;20051;-78
2022/08/07 04:41:45;;;;;;;11.48;7.50;;;;;;;23.51;50.56;99821.94;4934646;29;20063;-74
2022/08/07 04:44:11;;;;;;;15.05;7.65;;;;;;;23.63;50.50;99822.25;4935302;29;20146;-75
2022/08/07 04:46:53;;;;;;;15.55;7.82;;;;;;;23.93;49.99;99820.22;4935240;29;20067;-75
2022/08/07 04:49:40;;;;;;;12.02;8.02;;;;;;;24.06;49.12;99818.63;4935264;29;20519;-76
2022/08/07 04:52:08;;;;;;;17.48;8.15;;;;;;;24.11;48.62;99821.59;4984421;28;20039;-75
2022/08/07 04:55:05;;;;;;;15.88;8.38;;;;;;;24.06;48.60;99824.09;4975067;28;20129;-74
2022/08/07 04:58:12;;;;;;;18.27;8.35;;;;;;;24.21;48.08;99827.56;4950747;28;20055;-75
2022/08/07 05:00:38;;;;;;;17.52;8.68;;;;;;;24.09;48.15;99820.97;4900683;29;20119;-75
2022/08/07 05:03:22;;;;;;;17.25;7.57;;;;;;;24.27;47.68;99821.31;4958917;28;20454;-76
2022/08/07 05:06:06;;;;;;;14.48;8.30;;;;;;;24.31;47.15;99819.88;4974286;28;20051;-76
2022/08/07 05:08:44;;;;;;;15.98;7.22;;;;;;;24.53;47.02;99815.22;4975141;28;20043;-75
2022/08/07 05:11:18;;;;;;;14.80;7.60;;;;;;;24.83;46.93;99813.03;4957840;28;20043;-74
2022/08/07 05:13:52;;;;;;;22.15;7.40;;;;;;;24.96;45.73;99826.75;4958093;28;20042;-75
2022/08/07 05:16:21;;;;;;;23.98;7.90;;;;;;;24.68;45.86;99812.34;4973735;28;20057;-74
2022/08/07 05:18:55;;;;;;;18.77;7.80;;;;;;;24.93;45.67;99824.41;4957993;28;20401;-75
2022/08/07 05:21:25;;;;;;;24.10;8.45;;;;;;;25.17;45.23;99816.78;4939442;29;20515;-75
2022/08/07 05:23:59;;;;;;;18.48;8.27;;;;;;;25.43;45.12;99814.09;4939407;29;20082;-74
2022/08/07 05:26:28;;;;;;;24.88;8.35;;;;;;;25.38;44.60;99813.84;4971567;28;20043;-75
2022/08/07 05:29:05;;;;;;;23.45;7.68;;;;;;;25.27;44.13;99811.72;4955754;29;20182;-75
2022/08/07 05:31:37;;;;;;;20.10;8.32;;;;;;;25.24;44.56;99814.91;4956126;29;20047;-75
2022/08/07 05:34:07;;;;;;;15.70;7.15;;;;;;;25.59;44.56;99798.31;4955264;28;20066;-77
2022/08/07 05:36:37;;;;;;;17.58;7.20;;;;;;;25.91;44.03;99803.00;4970938;28;20147;-75
2022/08/07 05:39:07;;;;;;;17.27;7.20;;;;;;;26.22;43.93;99798.75;4938930;29;20043;-76
2022/08/07 05:41:33;;;;;;;24.67;7.38;;;;;;;26.58;43.01;99791.94;4954793;29;20051;-76
2022/08/07 05:44:00;;;;;;;20.85;7.95;;;;;;;26.70;42.33;99790.19;4954871;29;20387;-76
2022/08/07 05:46:27;;;;;;;23.02;7.68;;;;;;;26.66;42.02;99790.84;4938630;29;20070;-75
2022/08/07 05:48:54;;;;;;;20.50;7.45;;;;;;;26.72;41.19;99788.09;4967959;28;20054;-79
2022/08/07 05:51:21;;;;;;;18.60;7.90;;;;;;;26.73;40.49;99787.03;4974610;28;20054;-81
2022/08/07 05:53:47;;;;;;;28.83;8.00;;;;;;;26.62;39.91;99788.53;4958031;28;20490;-75
2022/08/07 05:56:15;;;;;;;35.75;7.75;;;;;;;26.72;40.26;99793.56;4976165;28;20049;-77
2022/08/07 05:58:46;;;;;;;19.65;7.68;;;;;;;27.05;41.97;99776.13;4957091;28;20518;-77
2022/08/07 06:01:15;;;;;;;17.83;7.47;;;;;;;27.47;40.84;99784.75;4975049;28;20062;-76
2022/08/07 06:03:49;;;;;;;24.38;7.88;;;;;;;27.41;39.60;99770.00;4973901;28;20043;-75
2022/08/07 06:06:16;;;;;;;190.10;38.38;;;;;;;27.42;39.02;99759.84;4989865;28;20137;-75
2022/08/07 06:08:43;;;;;;;31.02;9.13;;;;;;;27.33;38.39;99768.38;4973658;28;20042;-79
2022/08/07 06:11:10;;;;;;;34.03;8.20;;;;;;;27.44;38.09;99763.25;4957406;28;20459;-77
2022/08/07 06:13:36;;;;;;;38.63;8.70;;;;;;;27.53;38.09;99771.00;4972896;28;20074;-75
2022/08/07 06:16:06;;;;;;;25.55;7.80;;;;;;;27.81;38.00;99770.56;4971823;28;20060;-75
2022/08/07 06:18:33;;;;;;;29.63;8.43;;;;;;;28.04;37.12;99769.09;4955668;28;20042;-79
2022/08/07 06:21:00;;;;;;;35.30;9.82;;;;;;;28.15;36.37;99770.25;4955611;28;20054;-80
2022/08/07 06:23:27;;;;;;;43.08;8.32;;;;;;;28.08;36.63;99762.06;4955490;28;20038;-76
2022/08/07 06:25:54;;;;;;;32.65;8.35;;;;;;;28.26;36.74;99767.59;4955601;28;20039;-77
2022/08/07 06:28:21;;;;;;;34.78;10.02;;;;;;;28.49;35.89;99769.69;4955405;28;20059;-76
2022/08/07 06:30:47;;;;;;;28.23;7.32;;;;;;;28.58;35.68;99767.47;4971526;28;20049;-75
2022/08/07 06:33:18;;;;;;;24.02;8.18;;;;;;;28.65;35.66;99759.97;4955095;28;20043;-81
2022/08/07 06:35:46;;;;;;;27.65;8.65;;;;;;;28.87;34.98;99762.25;4955331;28;20059;-76
2022/08/07 06:38:13;;;;;;;25.48;7.50;;;;;;;28.66;34.15;99761.69;4971274;28;20127;-81
2022/08/07 06:40:45;;;;;;;14.20;6.55;;;;;;;28.53;34.04;99761.84;4955330;28;20043;-81
2022/08/07 06:43:14;;;;;;;22.80;6.88;;;;;;;28.50;34.43;99751.28;4955508;28;20403;-77
2022/08/07 06:46:03;;;;;;;15.10;5.93;;;;;;;28.98;33.71;99764.25;4965239;28;20500;-76
2022/08/07 06:48:30;;;;;;;12.73;5.72;;;;;;;29.11;33.10;99758.56;4955410;28;20137;-76
2022/08/07 06:51:01;;;;;;;24.73;5.28;;;;;;;29.33;32.04;99760.78;4971235;28;20101;-77
2022/08/07 06:53:29;;;;;;;10.85;5.93;;;;;;;29.58;32.03;99753.22;4971189;28;20042;-76
2022/08/07 06:55:57;;;;;;;19.25;6.03;;;;;;;29.90;32.05;99744.59;4955022;28;20197;-74
2022/08/07 06:58:25;;;;;;;8.27;5.00;;;;;;;30.12;31.67;99747.59;4954916;28;20410;-77
2022/08/07 07:00:57;;;;;;;17.00;5.40;;;;;;;30.38;30.72;99746.28;4955747;28;20062;-74
2022/08/07 07:03:24;;;;;;;14.43;5.80;;;;;;;30.42;30.28;99742.78;4971058;28;20042;-74
2022/08/07 07:05:50;;;;;;;14.05;5.07;;;;;;;30.66;30.29;99748.28;4972140;28;20414;-75
2022/08/07 07:08:16;;;;;;;8.48;4.80;;;;;;;30.83;29.76;99742.84;4969620;28;20097;-77
2022/08/07 07:10:42;;;;;;;8.07;4.90;;;;;;;31.01;29.58;99734.34;4922336;28;20849;-76
2022/08/07 07:13:45;;;;;;;11.20;4.85;;;;;;;31.18;28.50;99740.78;4985895;28;20059;-78
2022/08/07 07:16:17;;;;;;;6.75;4.55;;;;;;;31.23;28.94;99741.94;4970092;28;20042;-75
2022/08/07 07:18:49;;;;;;;11.02;4.97;;;;;;;31.04;28.22;99739.38;4953450;28;20457;-80
2022/08/07 07:21:20;;;;;;;15.85;5.22;;;;;;;30.84;28.84;99731.56;4969859;28;20049;-78
2022/08/07 07:23:47;;;;;;;9.77;5.05;;;;;;;30.65;28.97;99736.38;4970256;28;20077;-77
2022/08/07 07:26:17;;;;;;;9.43;4.55;;;;;;;31.02;28.98;99735.19;4969801;28;20053;-74
2022/08/07 07:28:56;;;;;;;5.82;4.65;;;;;;;31.36;28.21;99730.59;4954077;28;20042;-75
2022/08/07 07:31:34;;;;;;;8.60;4.63;;;;;;;31.35;27.82;99723.41;4953798;28;20105;-74
2022/08/07 07:34:05;;;;;;;8.38;4.78;;;;;;;31.49;28.25;99729.44;4937752;28;20043;-76
2022/08/07 07:36:33;;;;;;;8.65;4.88;;;;;;;31.77;27.82;99736.81;4969878;28;20109;-76
2022/08/07 07:39:02;;;;;;;9.13;4.90;;;;;;;31.80;27.16;99715.03;4985655;28;20101;-75
2022/08/07 07:41:30;;;;;;;7.82;4.85;;;;;;;31.72;26.96;99731.22;4953583;28;20194;-75
2022/08/07 07:43:59;;;;;;;12.27;5.20;;;;;;;31.26;27.41;99730.41;4969974;28;20096;-76
2022/08/07 07:46:27;;;;;;;7.25;4.70;;;;;;;31.02;27.59;99719.47;4969962;28;20053;-75
2022/08/07 07:48:55;;;;;;;9.68;5.00;;;;;;;31.14;27.04;99720.25;4971681;28;20066;-75
2022/08/07 07:51:23;;;;;;;17.50;5.03;;;;;;;31.59;26.88;99719.38;4955944;28;20061;-75
2022/08/07 07:53:50;;;;;;;8.95;4.60;;;;;;;31.84;26.36;99720.88;4955810;28;20047;-75
2022/08/07 07:56:17;;;;;;;8.30;4.25;;;;;;;32.17;25.88;99723.63;4972012;28;20038;-75
2022/08/07 07:58:43;;;;;;;9.35;4.38;;;;;;;32.18;25.25;99716.16;4975407;28;20078;-76
2022/08/07 08:01:10;;;;;;;12.73;4.80;;;;;;;32.49;25.49;99709.13;4976126;28;20046;-74
2022/08/07 08:03:40;;;;;;;6.50;4.32;;;;;;;32.75;25.75;99713.03;4975148;28;20134;-74
2022/08/07 08:06:07;;;;;;;12.27;4.30;;;;;;;32.17;25.58;99714.50;4992091;28;20053;-75
2022/08/07 08:08:34;;;;;;;15.65;5.10;;;;;;;31.53;26.71;99701.06;4959436;28;20051;-77
2022/08/07 08:11:02;;;;;;;11.15;4.70;;;;;;;31.39;26.82;99711.59;4991631;28;20042;-75
2022/08/07 08:13:29;;;;;;;15.23;4.82;;;;;;;31.65;26.68;99704.56;4958995;28;20042;-75
2022/08/07 08:16:00;;;;;;;9.30;4.65;;;;;;;32.10;26.75;99708.31;4975875;28;20082;-74
2022/08/07 08:18:28;;;;;;;11.18;4.43;;;;;;;32.45;25.61;99688.59;4974790;28;20047;-75
2022/08/07 08:20:59;;;;;;;7.68;4.20;;;;;;;32.82;24.78;99708.13;4976557;28;20046;-74
2022/08/07 08:29:00;;;;;;;8.60;4.60;;;;;;;33.59;24.00;99697.84;4975640;28;20042;-76
2022/08/07 08:31:32;;;;;;;5.53;4.10;;;;;;;33.72;23.43;99702.09;4975174;28;20038;-74
2022/08/07 08:34:01;;;;;;;13.23;4.45;;;;;;;33.38;23.39;99690.44;4974758;28;20043;-74
2022/08/07 08:36:31;;;;;;;6.80;4.22;;;;;;;33.80;23.23;99688.56;4974993;28;20512;-74
2022/08/07 08:39:00;;;;;;;9.07;4.20;;;;;;;34.15;23.09;99691.84;4991042;28;20494;-74
2022/08/07 08:41:50;;;;;;;7.28;4.50;;;;;;;34.29;22.85;99690.25;4959203;28;20053;-74
2022/08/07 08:44:38;;;;;;;12.82;4.45;;;;;;;34.53;22.49;99691.50;4976418;28;20147;-74
2022/08/07 08:47:11;;;;;;;13.18;4.40;;;;;;;34.69;23.17;99688.78;4958968;28;20042;-73
2022/08/07 08:49:55;;;;;;;12.77;4.20;;;;;;;34.74;22.45;99691.56;4974042;28;20078;-75
2022/08/07 08:52:26;;;;;;;9.57;4.75;;;;;;;34.19;21.79;99670.75;4959038;28;20194;-75
2022/08/07 08:55:08;;;;;;;13.98;4.32;;;;;;;33.62;22.94;99682.59;4958874;28;20042;-74
2022/08/07 08:57:57;;;;;;;10.43;4.20;;;;;;;33.60;23.16;99683.72;4991217;28;20137;-75
2022/08/07 09:00:29;;;;;;;10.98;4.30;;;;;;;33.31;23.26;99677.63;4958958;28;20054;-74
2022/08/07 09:02:59;;;;;;;12.32;4.05;;;;;;;33.68;22.80;99673.22;4973856;28;20573;-75
2022/08/07 09:05:33;;;;;;;6.78;3.83;;;;;;;34.02;22.23;99671.81;4990799;28;20050;-75
2022/08/07 09:07:58;;;;;;;10.18;4.20;;;;;;;34.59;22.54;99672.06;4958273;28;20145;-76
2022/08/07 09:11:06;;;;;;;8.50;4.10;;;;;;;34.83;21.91;99672.41;4942944;28;20053;-75
2022/08/07 09:13:42;;;;;;;11.05;4.35;;;;;;;35.17;22.52;99672.75;4916419;28;20073;-74
2022/08/07 09:16:29;;;;;;;9.55;4.20;;;;;;;35.48;22.53;99674.44;4974704;28;20047;-75
2022/08/07 09:19:14;;;;;;;5.13;4.03;;;;;;;35.75;21.05;99662.19;4942427;28;20161;-75
2022/08/07 09:22:06;;;;;;;8.98;4.10;;;;;;;35.89;20.75;99663.28;4974399;28;20046;-76
2022/08/07 09:24:38;;;;;;;6.88;4.03;;;;;;;35.70;20.45;99656.66;4980168;28;20054;-78
2022/08/07 09:27:15;;;;;;;5.65;3.97;;;;;;;35.16;21.50;99655.25;4977647;28;20043;-77
2022/08/07 09:30:03;;;;;;;12.60;4.30;;;;;;;34.47;22.25;99658.41;4975509;28;20126;-78
2022/08/07 09:32:57;;;;;;;10.60;3.80;;;;;;;34.87;22.60;99668.81;4989728;28;20051;-77
2022/08/07 09:35:45;;;;;;;13.85;4.20;;;;;;;34.98;21.13;99664.97;4973888;28;20094;-77
2022/08/07 09:38:14;;;;;;;;;;;;;;;34.37;21.67;99656.41;4958993;28;20051;-76
2022/08/07 09:41:05;;;;;;;10.70;3.90;;;;;;;34.22;21.97;99650.81;4974385;28;19940;-77
2022/08/07 09:44:06;;;;;;;7.03;4.00;;;;;;;33.54;22.65;99656.22;4973817;28;20051;-76
2022/08/07 09:46:42;;;;;;;6.45;3.85;;;;;;;33.18;22.46;99657.84;4958422;28;20046;-80
2022/08/07 09:49:59;;;;;;;6.03;3.97;;;;;;;34.20;21.69;99650.25;4948681;29;20051;-79
2022/08/07 09:52:28;;;;;;;11.10;3.90;;;;;;;34.65;21.39;99643.22;4964874;28;20051;-75
2022/08/07 09:55:53;;;;;;;7.53;3.90;;;;;;;34.45;20.73;99644.78;4969970;28;20038;-74
2022/08/07 09:58:28;;;;;;;5.63;3.85;;;;;;;35.36;21.10;99643.31;4916543;29;20543;-75
2022/08/07 10:01:14;;;;;;;14.30;3.90;;;;;;;36.42;19.19;99655.34;4915901;29;20088;-75
2022/08/07 10:04:16;;;;;;;6.88;3.97;;;;;;;35.64;19.48;99655.00;4963702;28;20078;-75
2022/08/07 10:06:48;;;;;;;14.20;3.80;;;;;;;35.56;19.36;99648.06;4976115;28;20039;-74
2022/08/07 10:09:41;;;;;;;6.15;3.40;;;;;;;35.97;19.11;99646.00;4974605;28;20049;-75
2022/08/07 10:12:40;;;;;;;10.13;3.60;;;;;;;36.50;18.83;99645.56;4975412;28;20050;-74
2022/08/07 10:15:25;;;;;;;4.22;3.20;;;;;;;37.35;17.95;99628.56;4991064;28;20093;-75
2022/08/07 10:18:09;;;;;;;8.43;3.42;;;;;;;38.12;17.41;99636.97;4959291;28;20478;-74
2022/08/07 10:20:53;;;;;;;5.22;3.45;;;;;;;38.65;16.78;99638.81;4990518;28;20061;-75
2022/08/07 10:23:39;;;;;;;13.55;3.53;;;;;;;38.66;16.03;99640.47;4974965;28;20047;-76
2022/08/07 10:26:24;;;;;;;6.45;2.67;;;;;;;38.59;16.27;99624.13;4966055;28;20045;-76
2022/08/07 10:29:17;;;;;;;5.40;3.25;;;;;;;38.34;16.36;99630.88;4966348;28;20051;-74
2022/08/07 10:31:59;;;;;;;3.55;2.65;;;;;;;38.56;16.23;99635.06;4953541;28;20066;-75
2022/08/07 10:34:37;;;;;;;7.60;3.00;;;;;;;38.14;16.27;99633.88;4989252;28;20046;-74
2022/08/07 10:37:09;;;;;;;4.07;3.10;;;;;;;37.81;17.12;99627.28;4969037;28;20070;-76
2022/08/07 10:40:03;;;;;;;9.77;3.63;;;;;;;37.51;17.60;99622.88;4973103;28;20047;-75
2022/08/07 10:42:48;;;;;;;11.10;3.80;;;;;;;37.94;17.57;99625.78;4973372;28;20089;-75
2022/08/07 10:45:25;;;;;;;6.95;3.22;;;;;;;38.31;17.43;99625.84;4989406;28;20070;-74
2022/08/07 10:47:57;;;;;;;6.20;3.22;;;;;;;39.38;17.50;99622.63;4973529;28;20082;-74
2022/08/07 10:50:33;;;;;;;6.53;3.53;;;;;;;40.21;16.91;99624.41;4973714;28;20513;-75
2022/08/07 10:53:26;;;;;;;7.20;3.50;;;;;;;40.80;16.46;99624.50;4973243;28;20097;-75
2022/08/07 10:56:26;;;;;;;9.90;3.50;;;;;;;40.89;16.10;99621.78;4974357;28;20082;-75
2022/08/07 10:59:16;;;;;;;11.90;3.40;;;;;;;40.76;16.26;99618.69;4974562;28;20042;-75
2022/08/07 11:01:57;;;;;;;6.60;3.10;;;;;;;40.74;15.90;99615.41;4955313;28;20055;-74
2022/08/07 11:05:00;;;;;;;7.40;3.08;;;;;;;39.83;16.43;99615.34;4972948;28;20129;-74
2022/08/07 11:07:53;;;;;;;6.13;2.90;;;;;;;39.19;17.12;99615.06;4989191;28;20093;-75
2022/08/07 11:10:28;;;;;;;11.32;3.30;;;;;;;38.76;17.73;99606.81;4972119;28;20069;-74
2022/08/07 11:13:01;;;;;;;15.38;3.90;;;;;;;38.02;18.29;99619.53;4955712;28;20138;-74
2022/08/07 11:15:33;;;;;;;4.80;3.45;;;;;;;37.81;18.06;99613.34;4966748;28;20054;-76
2022/08/07 11:18:04;;;;;;;11.25;3.63;;;;;;;38.22;17.77;99618.47;4963338;28;20047;-75
2022/08/07 11:20:41;;;;;;;10.00;3.80;;;;;;;38.54;17.68;99614.97;4963983;28;20539;-75
2022/08/07 11:23:24;;;;;;;13.48;3.15;;;;;;;38.69;18.23;99611.13;4979352;28;20066;-75
2022/08/07 11:26:03;;;;;;;11.60;2.97;;;;;;;38.84;18.31;99610.91;4953767;29;20043;-75
2022/08/07 11:28:40;;;;;;;9.20;3.00;;;;;;;38.34;19.13;99611.34;4954754;28;20090;-79
2022/08/07 11:31:42;;;;;;;10.02;2.80;;;;;;;38.37;19.34;99605.16;4953055;28;20494;-76
2022/08/07 11:34:28;;;;;;;49.83;4.40;;;;;;;38.09;19.72;99594.88;4936870;29;20062;-75
2022/08/07 11:37:06;;;;;;;9.93;2.92;;;;;;;37.84;20.11;99612.72;4969279;28;20085;-74
2022/08/07 11:40:03;;;;;;;9.15;2.58;;;;;;;38.21;19.94;99612.03;4922242;28;20142;-76
2022/08/07 11:42:51;;;;;;;18.13;3.05;;;;;;;37.47;20.36;99596.69;4950507;28;20047;-74
2022/08/07 11:45:32;;;;;;;9.07;2.78;;;;;;;37.55;20.29;99596.06;4969394;28;20098;-74
2022/08/07 11:48:11;;;;;;;9.85;3.22;;;;;;;37.90;20.07;99594.84;4969404;28;20071;-73
2022/08/07 11:50:58;;;;;;;6.95;2.58;;;;;;;37.34;20.49;99595.38;4969647;28;20046;-75
2022/08/07 11:53:48;;;;;;;9.73;2.80;;;;;;;37.16;20.40;99602.50;4954643;28;20047;-75
2022/08/07 11:56:39;;;;;;;6.72;2.60;;;;;;;38.00;19.86;99594.72;4968998;28;20534;-75
2022/08/07 11:59:44;;;;;;;12.98;2.70;;;;;;;37.89;19.77;99588.44;4969262;28;20415;-75
2022/08/07 12:02:25;;;;;;;13.27;2.65;;;;;;;37.51;19.95;99581.03;4953093;29;20097;-74